Time;durP1;ratioP1;P1;durP2;ratioP2;P2;SDS_P1;SDS_P2;PMS_P1;PMS_P2;Temp;Humidity;BMP_temperature;BMP_pressure;BME280_temperature;BME280_humidity;BME280_pressure;Samples;Min_cycle;Max_cycle;Signal;HPM_P1;HPM_P2
2022/06/11 00:01:34;;;;;;;7.35;4.60;;;;;;;16.67;100.00;101993.88;4911557;29;20044;-81
2022/06/11 00:04:07;;;;;;;11.50;5.65;;;;;;;16.66;100.00;101987.69;4872556;29;20056;-81
2022/06/11 00:06:41;;;;;;;5.35;4.50;;;;;;;16.66;100.00;101984.16;4922882;29;20052;-81
2022/06/11 00:09:11;;;;;;;8.88;5.55;;;;;;;16.65;100.00;101985.91;4917271;29;20044;-80
2022/06/11 00:11:40;;;;;;;9.48;6.13;;;;;;;16.65;100.00;101979.69;4911921;29;20036;-79
2022/06/11 00:14:10;;;;;;;6.07;5.10;;;;;;;16.62;100.00;101979.72;4891829;29;20506;-79
2022/06/11 00:16:39;;;;;;;8.88;5.50;;;;;;;16.60;100.00;101986.81;4900857;29;20048;-80
2022/06/11 00:19:09;;;;;;;8.33;4.90;;;;;;;16.57;100.00;101993.03;4873078;29;21202;-79
2022/06/11 00:21:40;;;;;;;11.45;5.90;;;;;;;16.54;100.00;101987.72;4902027;29;20056;-79
2022/06/11 00:24:08;;;;;;;6.28;4.78;;;;;;;16.53;100.00;101986.84;4909673;29;20048;-79
2022/06/11 00:26:38;;;;;;;9.73;5.18;;;;;;;16.52;100.00;101994.81;4912456;29;20052;-79
2022/06/11 00:29:11;;;;;;;7.15;5.05;;;;;;;16.49;100.00;101994.84;4872220;29;20536;-81
2022/06/11 00:31:40;;;;;;;5.32;4.30;;;;;;;16.50;100.00;101994.84;4909772;29;20067;-80
2022/06/11 00:34:09;;;;;;;10.77;5.80;;;;;;;16.50;100.00;102001.91;4869689;29;20202;-80
2022/06/11 00:36:38;;;;;;;11.35;5.55;;;;;;;16.50;100.00;101993.94;4861395;29;20052;-81
2022/06/11 00:39:13;;;;;;;7.53;5.18;;;;;;;16.51;100.00;101995.72;4884668;29;20344;-79
2022/06/11 00:41:44;;;;;;;5.90;4.88;;;;;;;16.49;100.00;101990.41;4915365;29;20502;-80
2022/06/11 00:44:14;;;;;;;8.68;5.90;;;;;;;16.49;100.00;101992.19;4900812;29;20410;-81
2022/06/11 00:47:06;;;;;;;9.10;5.78;;;;;;;16.48;100.00;101969.13;4892928;29;20056;-80
2022/06/11 00:49:41;;;;;;;8.07;5.72;;;;;;;16.47;100.00;101988.66;4905761;29;20378;-80
2022/06/11 00:52:36;;;;;;;8.07;6.35;;;;;;;16.46;100.00;101987.75;4855889;29;20264;-80
2022/06/11 00:55:22;;;;;;;8.32;5.85;;;;;;;16.45;100.00;101990.44;4917475;29;20078;-80
2022/06/11 00:58:02;;;;;;;9.20;5.97;;;;;;;16.42;100.00;101985.97;4891643;29;20266;-80
2022/06/11 01:00:45;;;;;;;12.25;6.05;;;;;;;16.38;100.00;101984.22;4907410;29;20052;-79
2022/06/11 01:03:18;;;;;;;11.73;6.32;;;;;;;16.33;100.00;101972.69;4915430;29;20056;-79
2022/06/11 01:05:50;;;;;;;8.10;5.40;;;;;;;16.26;100.00;101963.88;4872604;29;20048;-79
2022/06/11 01:08:19;;;;;;;9.10;5.82;;;;;;;16.21;100.00;101970.97;4891228;29;20044;-80
2022/06/11 01:11:14;;;;;;;6.18;4.78;;;;;;;16.15;100.00;101969.22;4892555;29;20059;-80
2022/06/11 01:14:06;;;;;;;8.55;4.97;;;;;;;16.07;100.00;101971.00;4906996;29;20044;-80
2022/06/11 01:16:47;;;;;;;9.07;6.57;;;;;;;16.00;100.00;101969.25;4909755;29;20051;-80
2022/06/11 01:19:31;;;;;;;11.32;6.90;;;;;;;15.95;100.00;101968.34;4910355;29;20052;-80
2022/06/11 01:22:36;;;;;;;9.00;6.95;;;;;;;15.90;100.00;101973.69;4866668;29;21094;-79
2022/06/11 01:25:32;;;;;;;10.30;7.25;;;;;;;15.85;100.00;101974.56;4908493;29;20194;-79
2022/06/11 01:28:38;;;;;;;10.65;7.50;;;;;;;15.80;100.00;101969.25;4903443;29;20059;-79
2022/06/11 01:31:24;;;;;;;12.63;7.95;;;;;;;15.75;100.00;101963.06;4888768;29;20040;-80
2022/06/11 01:34:04;;;;;;;16.70;7.60;;;;;;;15.67;100.00;101964.78;4906736;29;20520;-80
2022/06/11 01:36:37;;;;;;;9.38;6.40;;;;;;;15.55;100.00;101957.72;4895429;29;20060;-80
2022/06/11 01:39:47;;;;;;;8.95;5.55;;;;;;;15.46;100.00;101957.72;4883894;29;20250;-80
2022/06/11 01:42:40;;;;;;;8.70;5.05;;;;;;;15.35;100.00;101961.25;4896798;29;20060;-80
2022/06/11 01:45:34;;;;;;;10.38;4.97;;;;;;;15.30;100.00;101956.81;4892278;29;20521;-79
2022/06/11 01:48:06;;;;;;;9.43;4.53;;;;;;;15.27;100.00;101940.88;4899653;29;20040;-81
2022/06/11 01:50:39;;;;;;;11.43;4.93;;;;;;;15.22;100.00;101951.50;4892473;29;20039;-80
2022/06/11 01:53:36;;;;;;;9.60;4.72;;;;;;;15.17;100.00;101946.16;4872423;29;20567;-79
2022/06/11 01:56:23;;;;;;;10.63;5.05;;;;;;;15.15;100.00;101947.94;4905665;29;20258;-80
2022/06/11 01:59:09;;;;;;;11.45;4.97;;;;;;;15.11;100.00;101951.47;4906372;29;20044;-81
2022/06/11 02:02:05;;;;;;;9.98;4.63;;;;;;;15.08;100.00;101947.91;4906687;29;20051;-81
2022/06/11 02:05:04;;;;;;;8.13;4.57;;;;;;;15.06;100.00;101945.25;4908354;29;20060;-79
2022/06/11 02:07:41;;;;;;;7.00;4.13;;;;;;;15.01;100.00;101944.38;4895450;29;20040;-80
2022/06/11 02:10:28;;;;;;;10.23;4.72;;;;;;;14.95;100.00;101939.94;4849476;29;20055;-80
2022/06/11 02:13:24;;;;;;;14.80;5.15;;;;;;;14.91;100.00;101939.91;4914842;29;20304;-80
2022/06/11 02:16:05;;;;;;;9.50;4.45;;;;;;;14.85;100.00;101937.25;4919776;29;20441;-80
2022/06/11 02:18:35;;;;;;;;;;;;;;;14.79;100.00;101939.00;4897877;29;20043;-80
2022/06/11 02:21:09;;;;;;;8.55;4.45;;;;;;;14.76;100.00;101935.44;4906705;29;20141;-79
2022/06/11 02:23:47;;;;;;;9.80;3.80;;;;;;;14.70;100.00;101938.09;4883678;29;20051;-80
2022/06/11 02:26:28;;;;;;;15.23;4.32;;;;;;;14.63;100.00;101939.84;4881921;29;20063;-79
2022/06/11 02:29:00;;;;;;;12.48;4.38;;;;;;;14.58;100.00;101941.59;4906127;29;20155;-80
2022/06/11 02:31:33;;;;;;;13.73;4.30;;;;;;;14.54;100.00;101938.00;4908103;29;20414;-80
2022/06/11 02:34:04;;;;;;;10.00;3.67;;;;;;;14.51;100.00;101942.41;4909590;29;20498;-80
2022/06/11 02:36:46;;;;;;;10.95;2.90;;;;;;;14.50;100.00;101940.63;4883734;29;20047;-80
2022/06/11 02:39:15;;;;;;;6.28;3.10;;;;;;;14.48;100.00;101942.38;4912709;29;20413;-80
2022/06/11 02:41:46;;;;;;;12.27;3.47;;;;;;;14.47;100.00;101941.50;4881426;29;20039;-81
2022/06/11 02:44:14;;;;;;;9.88;3.63;;;;;;;14.47;100.00;101943.28;4909546;29;20052;-81
2022/06/11 02:46:44;;;;;;;10.73;3.53;;;;;;;14.43;100.00;101935.28;4900224;29;20048;-80
2022/06/11 02:49:27;;;;;;;9.05;3.45;;;;;;;14.41;100.00;101942.34;4899140;29;20048;-80
2022/06/11 02:51:59;;;;;;;8.48;4.13;;;;;;;14.41;100.00;101946.78;4906133;29;20048;-81
2022/06/11 02:54:28;;;;;;;8.65;3.35;;;;;;;14.39;100.00;101944.13;4900790;29;20055;-80
2022/06/11 02:57:00;;;;;;;8.48;2.88;;;;;;;14.37;100.00;101943.22;4887991;29;20043;-80
2022/06/11 02:59:29;;;;;;;9.52;3.15;;;;;;;14.36;100.00;101954.69;4880828;29;20055;-80
2022/06/11 03:01:58;;;;;;;11.32;3.10;;;;;;;14.32;100.00;101957.34;4868174;29;20154;-79
2022/06/11 03:04:29;;;;;;;11.52;2.97;;;;;;;14.29;100.00;101949.34;4890472;29;20053;-79
2022/06/11 03:06:58;;;;;;;11.77;3.38;;;;;;;14.24;100.00;101952.88;4894258;29;20526;-79
2022/06/11 03:09:30;;;;;;;14.68;3.17;;;;;;;14.22;100.00;101961.72;4901974;29;20059;-79
2022/06/11 03:12:00;;;;;;;13.13;3.25;;;;;;;14.19;100.00;101957.25;4873392;29;20319;-79
2022/06/11 03:14:29;;;;;;;11.52;3.13;;;;;;;14.17;100.00;101956.34;4906997;29;20055;-79
2022/06/11 03:16:58;;;;;;;14.52;3.53;;;;;;;14.14;100.00;101950.16;4903520;29;20174;-80
2022/06/11 03:19:47;;;;;;;11.80;3.15;;;;;;;14.10;100.00;101956.31;4890364;29;20508;-82
2022/06/11 03:22:36;;;;;;;9.35;2.83;;;;;;;14.07;100.00;101966.91;4896687;29;20529;-80
2022/06/11 03:25:09;;;;;;;11.32;3.47;;;;;;;14.04;100.00;101960.72;4877247;29;20649;-80
2022/06/11 03:27:40;;;;;;;9.80;2.60;;;;;;;14.02;100.00;101954.50;4878608;29;20044;-80
2022/06/11 03:30:10;;;;;;;9.77;2.67;;;;;;;14.04;100.00;101965.13;4890874;29;20072;-80
2022/06/11 03:32:38;;;;;;;9.20;2.92;;;;;;;14.02;100.00;101970.41;4890594;29;20048;-80
2022/06/11 03:35:07;;;;;;;9.48;3.03;;;;;;;14.01;100.00;101960.69;4890581;29;20604;-79
2022/06/11 03:37:36;;;;;;;7.13;2.60;;;;;;;14.02;100.00;101970.41;4878165;29;20051;-82
2022/06/11 03:40:05;;;;;;;9.63;2.95;;;;;;;14.02;100.00;101965.09;4881081;29;20328;-80
2022/06/11 03:42:35;;;;;;;13.95;3.13;;;;;;;14.01;100.00;101968.63;4875098;29;20044;-79
2022/06/11 03:45:03;;;;;;;9.73;3.00;;;;;;;14.02;100.00;101969.50;4885440;29;20154;-81
2022/06/11 03:47:38;;;;;;;17.13;3.50;;;;;;;14.01;100.00;101973.06;4906642;29;20063;-80
2022/06/11 03:50:14;;;;;;;9.63;3.90;;;;;;;13.99;100.00;101977.47;4903163;29;20245;-80
2022/06/11 03:52:46;;;;;;;6.97;2.92;;;;;;;13.97;100.00;101977.44;4916017;29;20059;-80
2022/06/11 03:55:25;;;;;;;6.78;2.97;;;;;;;13.99;100.00;101974.81;4910135;29;20044;-81
2022/06/11 03:57:54;;;;;;;10.23;3.40;;;;;;;14.01;100.00;101979.25;4894168;29;20068;-79
2022/06/11 04:03:19;;;;;;;13.07;2.90;;;;;;;14.03;100.00;101987.22;4908655;29;20067;-80
2022/06/11 04:05:51;;;;;;;8.18;3.20;;;;;;;14.06;100.00;101988.97;4895362;29;20052;-80
2022/06/11 04:08:22;;;;;;;13.27;3.13;;;;;;;14.04;100.00;101984.56;4898159;29;20052;-80
2022/06/11 04:10:54;;;;;;;8.80;2.60;;;;;;;14.02;100.00;101988.94;4879197;29;20041;-81
2022/06/11 04:13:28;;;;;;;10.60;3.10;;;;;;;14.04;100.00;101989.88;4910587;29;20051;-81
2022/06/11 04:15:58;;;;;;;14.68;3.60;;;;;;;14.03;100.00;101985.44;4866710;29;20253;-80
2022/06/11 04:18:36;;;;;;;;;;;;;;;14.03;100.00;101981.91;4893101;29;20071;-79
2022/06/11 04:21:12;;;;;;;8.05;3.22;;;;;;;14.03;100.00;101982.78;4895963;29;20045;-80
2022/06/11 04:23:45;;;;;;;9.15;3.40;;;;;;;14.06;100.00;101986.31;4861955;29;20052;-80
2022/06/11 04:26:17;;;;;;;10.15;3.63;;;;;;;14.11;100.00;101979.31;4913207;29;20051;-81
2022/06/11 04:28:53;;;;;;;12.20;3.65;;;;;;;14.17;100.00;101987.28;4883764;29;20052;-81
2022/06/11 04:31:24;;;;;;;13.35;4.18;;;;;;;14.24;100.00;101989.09;4869022;29;20572;-79
2022/06/11 04:33:54;;;;;;;7.18;3.60;;;;;;;14.30;100.00;101991.78;4908909;29;20560;-79
2022/06/11 04:36:25;;;;;;;11.55;3.83;;;;;;;14.37;100.00;102001.56;4899500;29;20122;-80
2022/06/11 04:38:54;;;;;;;12.02;4.75;;;;;;;14.42;100.00;101988.31;4893943;29;20270;-80
2022/06/11 04:41:23;;;;;;;8.60;3.65;;;;;;;14.43;100.00;101990.97;4871913;29;20044;-80
2022/06/11 04:43:51;;;;;;;9.45;4.13;;;;;;;14.48;100.00;101995.41;4886152;29;20044;-80
2022/06/11 04:46:20;;;;;;;8.63;4.10;;;;;;;14.53;100.00;101997.22;4856818;29;20490;-80
2022/06/11 04:48:49;;;;;;;10.75;3.75;;;;;;;14.58;100.00;101984.03;4891172;29;20051;-81
2022/06/11 04:51:18;;;;;;;13.07;4.10;;;;;;;14.60;100.00;101991.09;4878868;29;20059;-79
2022/06/11 04:53:48;;;;;;;12.27;3.85;;;;;;;14.63;100.00;101995.56;4890744;29;20055;-79
2022/06/11 04:56:20;;;;;;;;;;;;;;;14.67;100.00;101989.38;4898940;29;20048;-80
2022/06/11 04:58:50;;;;;;;6.18;3.13;;;;;;;14.74;100.00;101992.94;4886717;29;19931;-81
2022/06/11 05:01:20;;;;;;;15.18;4.47;;;;;;;14.79;100.00;101991.19;4881441;29;20055;-80
2022/06/11 05:03:58;;;;;;;10.25;3.38;;;;;;;14.94;100.00;101993.91;4906991;29;20067;-79
2022/06/11 05:06:32;;;;;;;12.88;4.10;;;;;;;15.47;100.00;101989.59;4894110;29;20055;-79
2022/06/11 05:09:01;;;;;;;10.27;3.67;;;;;;;16.29;100.00;101998.41;4891149;29;20047;-80
2022/06/11 05:11:29;;;;;;;12.15;3.90;;;;;;;17.10;100.00;101985.72;4874115;29;20036;-81
2022/06/11 05:13:58;;;;;;;14.15;3.83;;;;;;;17.82;100.00;101987.84;4880593;29;20254;-79
2022/06/11 05:16:26;;;;;;;10.43;2.97;;;;;;;18.53;100.00;101989.84;4879116;29;20075;-80
2022/06/11 05:18:55;;;;;;;11.13;3.30;;;;;;;19.14;100.00;101993.53;4888281;29;20376;-80
2022/06/11 05:21:30;;;;;;;9.25;3.67;;;;;;;19.44;100.00;101994.00;4909919;29;21237;-80
2022/06/11 05:24:14;;;;;;;7.05;2.55;;;;;;;19.80;100.00;101989.84;4894381;29;20419;-79
2022/06/11 05:26:49;;;;;;;12.77;3.40;;;;;;;20.19;100.00;102002.56;4881763;29;20389;-81
2022/06/11 05:29:30;;;;;;;15.63;3.40;;;;;;;20.51;100.00;101998.38;4885557;29;20052;-79
2022/06/11 05:32:01;;;;;;;8.23;2.80;;;;;;;20.93;100.00;101993.94;4880926;28;20259;-80
2022/06/11 05:34:32;;;;;;;8.55;3.03;;;;;;;21.37;100.00;102000.09;4905940;29;20056;-79
2022/06/11 05:37:00;;;;;;;12.23;2.92;;;;;;;21.54;100.00;101996.16;4907315;29;20040;-80
2022/06/11 05:39:29;;;;;;;10.82;3.42;;;;;;;21.68;100.00;101986.00;4892600;29;20048;-80
2022/06/11 05:41:58;;;;;;;8.07;2.83;;;;;;;21.90;100.00;101994.34;4897373;29;20529;-81
2022/06/11 05:44:26;;;;;;;9.13;3.47;;;;;;;22.05;98.05;102000.25;4889380;29;20406;-80
2022/06/11 05:46:55;;;;;;;12.07;3.25;;;;;;;22.13;95.83;101996.41;4879129;29;20041;-81
2022/06/11 05:49:31;;;;;;;12.15;3.40;;;;;;;21.97;94.33;101990.59;4893660;29;20059;-80
2022/06/11 05:52:05;;;;;;;13.40;4.03;;;;;;;21.56;94.01;102005.06;4892526;29;20257;-81
2022/06/11 05:54:39;;;;;;;15.02;3.45;;;;;;;21.02;93.91;102001.78;4907935;29;20048;-80
2022/06/11 05:57:12;;;;;;;15.18;3.70;;;;;;;20.66;95.39;102000.75;4881462;29;20294;-81
2022/06/11 05:59:46;;;;;;;12.15;3.85;;;;;;;20.33;96.06;102008.53;4898830;29;20071;-80
2022/06/11 06:02:20;;;;;;;16.17;4.65;;;;;;;20.18;97.46;102003.47;4866167;29;20036;-81
2022/06/11 06:04:49;;;;;;;13.32;3.75;;;;;;;20.11;97.87;102009.84;4903949;29;20064;-79
2022/06/11 06:07:18;;;;;;;19.30;3.92;;;;;;;20.10;99.01;102006.28;4893221;29;20044;-81
2022/06/11 06:09:47;;;;;;;16.90;4.40;;;;;;;20.29;97.85;102008.63;4897988;29;20056;-81
2022/06/11 06:12:17;;;;;;;21.57;4.67;;;;;;;20.42;96.97;102019.06;4911908;29;20498;-81
2022/06/11 06:14:45;;;;;;;12.07;3.67;;;;;;;20.55;96.32;102011.69;4890104;29;20295;-81
2022/06/11 06:17:14;;;;;;;14.73;4.88;;;;;;;20.78;95.78;102005.88;4892644;29;20049;-80
2022/06/11 06:20:01;;;;;;;8.93;3.35;;;;;;;21.06;95.51;102002.63;4868334;29;20035;-80
2022/06/11 06:22:29;;;;;;;16.98;5.10;;;;;;;20.87;93.01;102010.16;4893169;29;20402;-80
2022/06/11 06:24:57;;;;;;;16.52;4.85;;;;;;;20.72;93.58;102018.50;4919318;29;20259;-81
2022/06/11 06:27:26;;;;;;;14.43;4.38;;;;;;;20.68;93.63;102014.13;4888207;29;20051;-80
2022/06/11 06:29:55;;;;;;;15.00;4.10;;;;;;;20.32;93.53;102020.16;4884146;29;20051;-81
2022/06/11 06:32:26;;;;;;;19.92;5.15;;;;;;;19.99;95.13;102018.97;4893058;29;20040;-81
2022/06/11 06:34:55;;;;;;;19.92;4.72;;;;;;;19.81;96.50;102013.03;4860374;29;20181;-80
2022/06/11 06:37:24;;;;;;;13.15;4.40;;;;;;;19.79;97.45;102017.53;4892908;29;20062;-81
2022/06/11 06:39:55;;;;;;;22.88;5.72;;;;;;;19.76;97.87;102020.25;4904150;29;20178;-80
2022/06/11 06:42:25;;;;;;;27.25;5.53;;;;;;;19.61;98.11;102023.13;4908934;29;20048;-80
2022/06/11 06:44:57;;;;;;;17.30;4.35;;;;;;;19.43;98.67;102024.28;4880147;29;20387;-80
2022/06/11 06:47:25;;;;;;;20.65;4.63;;;;;;;19.34;99.76;102025.31;4877793;29;20048;-79
2022/06/11 06:49:54;;;;;;;20.15;5.03;;;;;;;19.38;100.00;102027.03;4850617;29;20048;-80
2022/06/11 06:52:23;;;;;;;12.65;3.92;;;;;;;19.41;100.00;102035.03;4889639;29;20068;-79
2022/06/11 06:54:52;;;;;;;19.35;4.47;;;;;;;19.42;100.00;102039.44;4893624;29;20036;-81
2022/06/11 06:57:20;;;;;;;24.50;5.18;;;;;;;19.39;100.00;102043.94;4890953;29;20041;-80
2022/06/11 06:59:49;;;;;;;26.08;5.45;;;;;;;19.29;100.00;102043.22;4872191;29;20062;-80
2022/06/11 07:02:18;;;;;;;22.88;5.53;;;;;;;19.28;100.00;102052.13;4874665;29;20510;-79
2022/06/11 07:04:46;;;;;;;18.38;4.82;;;;;;;19.31;100.00;102040.50;4884527;29;20051;-80
2022/06/11 07:07:17;;;;;;;21.08;4.82;;;;;;;19.38;100.00;102043.06;4899947;29;20285;-79
2022/06/11 07:09:53;;;;;;;19.60;4.55;;;;;;;19.36;100.00;102047.56;4890958;29;20036;-80
2022/06/11 07:12:22;;;;;;;20.95;5.00;;;;;;;19.44;100.00;102040.31;4892917;29;20524;-80
2022/06/11 07:14:51;;;;;;;20.20;4.68;;;;;;;19.38;100.00;102048.41;4903517;29;20055;-80
2022/06/11 07:17:21;;;;;;;20.08;4.88;;;;;;;19.32;100.00;102047.63;4894752;29;20056;-81
2022/06/11 07:20:00;;;;;;;24.33;5.00;;;;;;;19.28;100.00;102054.78;4842082;29;20048;-81
2022/06/11 07:22:35;;;;;;;20.73;5.40;;;;;;;19.15;100.00;102053.19;4910289;29;20052;-79
2022/06/11 07:25:06;;;;;;;25.38;5.50;;;;;;;19.12;100.00;102055.91;4876018;29;20245;-80
2022/06/11 07:27:39;;;;;;;21.92;5.35;;;;;;;19.14;100.00;102054.97;4907809;29;20044;-80
2022/06/11 07:30:12;;;;;;;20.67;5.47;;;;;;;19.21;100.00;102055.81;4913994;29;20441;-80
2022/06/11 07:32:45;;;;;;;24.00;5.20;;;;;;;19.39;100.00;102055.53;4881598;29;20059;-80
2022/06/11 07:35:16;;;;;;;31.65;6.57;;;;;;;19.46;100.00;102053.66;4879466;29;20060;-82
2022/06/11 07:37:45;;;;;;;14.90;4.78;;;;;;;19.53;100.00;102063.34;4894327;29;20118;-79
2022/06/11 07:40:15;;;;;;;;;;;;;;;19.54;98.05;102059.75;4892462;29;20509;-79
2022/06/11 07:42:45;;;;;;;22.35;4.47;;;;;;;19.66;100.00;102061.38;4898276;29;19942;-80
2022/06/11 07:45:14;;;;;;;289.33;36.45;;;;;;;19.65;100.00;102068.50;4917150;29;20044;-81
2022/06/11 07:47:54;;;;;;;25.23;5.22;;;;;;;19.64;100.00;102064.09;4889563;29;20118;-79
2022/06/11 07:50:36;;;;;;;20.63;5.00;;;;;;;19.58;99.00;102056.13;4879154;29;20379;-80
2022/06/11 07:53:06;;;;;;;17.73;5.20;;;;;;;19.57;99.43;102069.53;4898701;29;20044;-80
2022/06/11 07:55:37;;;;;;;20.60;5.35;;;;;;;19.61;99.76;102068.59;4897562;29;20430;-81
2022/06/11 07:58:08;;;;;;;371.25;46.28;;;;;;;19.65;100.00;102073.84;4911766;29;20056;-81
2022/06/11 08:00:44;;;;;;;21.05;5.10;;;;;;;19.64;100.00;102076.53;4911131;29;20055;-79
2022/06/11 08:03:15;;;;;;;19.60;4.85;;;;;;;19.76;99.77;102079.06;4894529;29;20075;-79
2022/06/11 08:05:44;;;;;;;27.05;5.65;;;;;;;19.79;98.33;102096.84;4863769;29;20525;-79
2022/06/11 08:08:14;;;;;;;18.88;5.38;;;;;;;19.79;99.09;102088.84;4905831;29;20533;-80
2022/06/11 08:10:44;;;;;;;19.33;5.32;;;;;;;19.84;98.64;102090.53;4896301;29;20048;-81
2022/06/11 08:13:21;;;;;;;20.55;4.63;;;;;;;19.87;98.16;102089.63;4882128;29;20056;-80
2022/06/11 08:15:52;;;;;;;20.52;5.13;;;;;;;19.84;98.04;102095.00;4907137;29;20361;-80
2022/06/11 08:18:23;;;;;;;17.38;4.22;;;;;;;19.93;97.96;102100.22;4888730;29;20090;-79
2022/06/11 08:20:51;;;;;;;21.10;5.55;;;;;;;19.99;97.23;102104.59;4890783;29;21858;-81
2022/06/11 08:23:22;;;;;;;23.55;4.90;;;;;;;20.06;97.42;102106.25;4905040;29;20040;-80
2022/06/11 08:25:52;;;;;;;;;;;;;;;19.99;93.51;102108.13;4909511;29;20065;-80
2022/06/11 08:28:22;;;;;;;19.38;5.05;;;;;;;19.92;97.00;102105.59;4909784;29;19927;-80
2022/06/11 08:30:52;;;;;;;20.77;4.90;;;;;;;19.96;96.91;102104.63;4909050;29;20266;-81
2022/06/11 08:33:21;;;;;;;20.67;4.88;;;;;;;19.90;96.34;102110.06;4914193;29;20055;-80
2022/06/11 08:35:50;;;;;;;18.00;4.75;;;;;;;19.96;97.75;102113.56;4856364;29;20860;-81
2022/06/11 08:38:18;;;;;;;19.88;5.55;;;;;;;20.12;97.04;102111.50;4881436;29;20055;-80
2022/06/11 08:40:50;;;;;;;18.27;5.28;;;;;;;20.24;96.25;102110.41;4873873;29;20052;-81
2022/06/11 08:43:27;;;;;;;22.67;4.93;;;;;;;20.36;95.42;102114.66;4909885;29;20052;-80
2022/06/11 08:46:01;;;;;;;21.00;4.88;;;;;;;20.42;94.37;102110.09;4902662;29;20048;-80
2022/06/11 08:49:08;;;;;;;13.63;4.35;;;;;;;20.50;95.56;102112.63;4927509;29;20047;-80
2022/06/11 08:51:45;;;;;;;21.00;5.90;;;;;;;20.53;92.37;102109.00;4877022;29;20052;-81
2022/06/11 08:54:18;;;;;;;20.13;4.70;;;;;;;20.50;93.26;102112.63;4906077;29;20051;-81
2022/06/11 08:57:06;;;;;;;15.55;3.80;;;;;;;20.54;90.44;102110.78;4883038;29;20044;-81
2022/06/11 09:00:02;;;;;;;20.88;5.43;;;;;;;20.60;93.58;102110.69;4909802;29;20040;-80
2022/06/11 09:03:02;;;;;;;20.25;4.60;;;;;;;20.67;91.05;102111.47;4900383;29;20029;-81
2022/06/11 09:06:04;;;;;;;16.63;4.72;;;;;;;20.68;88.52;102122.16;4891265;29;20146;-80
2022/06/11 09:08:47;;;;;;;20.83;5.07;;;;;;;20.67;88.37;102117.69;4863013;29;20439;-81
2022/06/11 09:11:44;;;;;;;20.10;4.82;;;;;;;20.63;86.43;102114.19;4893187;29;20059;-81
2022/06/11 09:14:42;;;;;;;18.15;4.75;;;;;;;20.69;86.74;102123.03;4878801;29;20059;-79
2022/06/11 09:17:37;;;;;;;48.60;7.25;;;;;;;20.50;88.38;102117.97;4884390;29;20398;-79
2022/06/11 09:20:21;;;;;;;18.65;4.57;;;;;;;20.49;91.02;102120.69;4896016;29;20056;-79
2022/06/11 09:23:09;;;;;;;21.85;5.35;;;;;;;20.44;91.54;102121.66;4851945;29;20620;-80
2022/06/11 09:25:56;;;;;;;19.20;5.22;;;;;;;20.43;90.09;102125.25;4864280;29;20059;-79
2022/06/11 09:28:40;;;;;;;14.20;3.58;;;;;;;20.34;88.41;102127.19;4858657;29;20386;-80
2022/06/11 09:31:13;;;;;;;17.48;4.10;;;;;;;20.22;90.12;102121.13;4885082;29;20067;-80
2022/06/11 09:33:56;;;;;;;17.05;4.28;;;;;;;20.20;89.55;102120.28;4887814;29;20045;-80
2022/06/11 09:36:37;;;;;;;15.00;4.43;;;;;;;20.30;90.54;102123.66;4891824;29;20064;-80
2022/06/11 09:39:37;;;;;;;25.80;5.35;;;;;;;20.34;87.89;102122.72;4862968;29;20048;-79
2022/06/11 09:42:33;;;;;;;23.27;4.38;;;;;;;20.22;84.90;102123.81;4883896;29;20053;-79
2022/06/11 09:45:25;;;;;;;10.82;3.88;;;;;;;20.31;87.73;102122.78;4891769;29;20040;-79
2022/06/11 09:48:04;;;;;;;18.02;5.38;;;;;;;20.39;87.18;102130.66;4862073;29;20049;-80
2022/06/11 09:50:55;;;;;;;19.40;4.13;;;;;;;20.38;85.04;102131.59;4874059;29;20053;-81
2022/06/11 09:53:43;;;;;;;16.88;4.05;;;;;;;20.52;81.50;102126.88;4866752;29;20061;-79
2022/06/11 09:56:31;;;;;;;23.27;4.72;;;;;;;20.61;83.92;102128.53;4887400;29;20403;-80
2022/06/11 09:59:29;;;;;;;12.88;4.10;;;;;;;20.56;81.02;102135.72;4894429;29;20047;-80
2022/06/11 10:05:19;;;;;;;15.80;4.13;;;;;;;20.37;83.58;102143.19;4913281;29;20047;-80
2022/06/11 10:07:55;;;;;;;14.15;3.72;;;;;;;20.52;81.09;102137.56;4904063;29;20048;-79
2022/06/11 10:10:28;;;;;;;11.45;3.50;;;;;;;20.71;81.18;102148.00;4880485;29;20044;-80
2022/06/11 10:13:14;;;;;;;15.45;3.65;;;;;;;20.86;77.25;102142.34;4894435;29;20426;-81
2022/06/11 10:15:50;;;;;;;12.70;3.08;;;;;;;20.88;76.80;102148.56;4922898;29;20489;-79
2022/06/11 10:18:26;;;;;;;12.75;3.20;;;;;;;20.83;75.34;102143.28;4912854;29;20048;-80
2022/06/11 10:21:10;;;;;;;12.88;3.13;;;;;;;20.92;75.19;102146.69;4924018;29;20040;-79
2022/06/11 10:23:52;;;;;;;15.27;3.40;;;;;;;20.94;71.84;102152.91;4879218;29;25420;-80
2022/06/11 10:26:35;;;;;;;13.20;3.35;;;;;;;20.89;73.16;102142.28;4927376;28;20052;-81
2022/06/11 10:29:37;;;;;;;11.75;3.53;;;;;;;20.97;73.80;102140.34;4915372;29;20060;-79
2022/06/11 10:32:08;;;;;;;14.18;3.30;;;;;;;21.06;73.66;102159.81;4894374;29;20033;-81
2022/06/11 10:34:41;;;;;;;15.10;3.50;;;;;;;21.14;73.96;102153.41;4895072;29;20055;-79
2022/06/11 10:37:21;;;;;;;12.52;3.35;;;;;;;21.32;72.92;102156.59;4908314;29;20046;-81
2022/06/11 10:40:16;;;;;;;11.73;3.15;;;;;;;21.51;70.40;102152.69;4898247;29;20047;-81
2022/06/11 10:43:09;;;;;;;14.93;3.25;;;;;;;21.70;68.77;102153.16;4911695;29;20237;-82
2022/06/11 10:45:51;;;;;;;14.35;3.10;;;;;;;21.79;71.88;102162.75;4916086;29;20051;-82
2022/06/11 10:48:23;;;;;;;13.00;3.50;;;;;;;21.94;70.59;102161.53;4923458;29;20055;-84
2022/06/11 10:50:51;;;;;;;13.05;2.85;;;;;;;22.02;70.39;102159.53;4894574;29;20720;-82
2022/06/11 10:53:37;;;;;;;12.05;3.10;;;;;;;22.08;65.11;102156.72;4897263;29;20051;-82
2022/06/11 10:56:17;;;;;;;12.63;3.58;;;;;;;22.12;64.04;102166.47;4893444;29;20052;-82
2022/06/11 10:59:01;;;;;;;11.05;2.85;;;;;;;22.11;64.93;102151.25;4896019;29;20158;-82
2022/06/11 11:01:36;;;;;;;9.95;2.92;;;;;;;22.24;66.77;102167.97;4913289;29;20040;-82
2022/06/11 11:04:14;;;;;;;10.63;3.17;;;;;;;22.41;64.34;102161.31;4922313;29;20415;-81
2022/06/11 11:06:43;;;;;;;9.05;3.03;;;;;;;22.51;66.09;102161.06;4906032;29;20036;-81
2022/06/11 11:09:23;;;;;;;12.30;3.08;;;;;;;22.65;65.68;102160.69;4918371;29;20398;-81
2022/06/11 11:12:01;;;;;;;12.18;3.80;;;;;;;22.77;61.37;102165.72;4864364;29;20052;-81
2022/06/11 11:14:42;;;;;;;14.10;3.67;;;;;;;22.64;60.38;102166.09;4915953;29;20051;-82
2022/06/11 11:17:20;;;;;;;17.75;3.78;;;;;;;22.56;60.15;102169.00;4918915;29;20040;-81
2022/06/11 11:22:41;;;;;;;11.02;3.03;;;;;;;22.15;62.69;102171.75;4910488;29;20045;-81
2022/06/11 11:25:18;;;;;;;8.50;2.85;;;;;;;22.13;59.88;102162.84;4919695;29;20055;-81
2022/06/11 11:27:50;;;;;;;9.30;2.58;;;;;;;22.05;61.70;102167.53;4896457;29;20268;-83
2022/06/11 11:30:31;;;;;;;9.32;2.75;;;;;;;22.08;60.86;102174.63;4900598;29;20048;-82
2022/06/11 11:33:26;;;;;;;15.90;3.55;;;;;;;22.15;59.22;102176.25;4917820;29;20036;-82
2022/06/11 11:36:11;;;;;;;13.55;3.40;;;;;;;22.18;62.78;102177.03;4919606;29;20056;-83
2022/06/11 11:38:41;;;;;;;11.68;2.88;;;;;;;22.36;62.47;102170.38;4914683;29;20247;-82
2022/06/11 11:41:23;;;;;;;8.57;3.45;;;;;;;22.48;61.73;102174.56;4922627;29;20051;-81
2022/06/11 11:43:56;;;;;;;14.13;3.47;;;;;;;22.56;62.11;102177.03;4895367;29;20055;-81
2022/06/11 11:46:31;;;;;;;11.30;2.55;;;;;;;22.56;61.38;102169.00;4915871;29;20082;-81
2022/06/11 11:49:02;;;;;;;13.18;2.97;;;;;;;22.59;61.18;102160.84;4915769;29;20063;-81
2022/06/11 11:51:30;;;;;;;14.45;3.13;;;;;;;22.70;60.43;102168.63;4911281;29;20059;-82
2022/06/11 11:54:18;;;;;;;11.45;3.15;;;;;;;22.77;57.80;102170.22;4892649;29;20041;-82
2022/06/11 11:57:06;;;;;;;12.65;3.38;;;;;;;22.77;57.81;102176.47;4886412;29;20052;-81
2022/06/11 11:59:52;;;;;;;11.30;3.28;;;;;;;22.71;58.94;102175.75;4883743;29;20055;-81
2022/06/11 12:02:31;;;;;;;12.77;2.95;;;;;;;22.71;59.58;102167.72;4916422;29;20082;-83
2022/06/11 12:05:21;;;;;;;11.05;2.92;;;;;;;22.60;57.33;102176.03;4885303;29;20079;-81
2022/06/11 12:07:52;;;;;;;19.23;3.38;;;;;;;22.58;59.02;102175.19;4888980;29;20044;-80